createdAt,value
2018-05-02T00:01:38.025Z,10.73
2018-05-02T00:04:05.664Z,10.70
2018-05-02T00:06:33.533Z,11.02
2018-05-02T00:09:03.234Z,11.27
2018-05-02T00:11:31.878Z,11.80
2018-05-02T00:14:03.374Z,12.25
2018-05-02T00:16:38.427Z,12.30
2018-05-02T00:19:05.911Z,13.55
2018-05-02T00:21:33.507Z,13.02
2018-05-02T00:24:00.997Z,13.50
2018-05-02T00:26:28.521Z,13.68
2018-05-02T00:28:55.992Z,12.45
2018-05-02T00:31:23.465Z,15.05
2018-05-02T00:33:51.274Z,14.02
2018-05-02T00:36:18.745Z,14.52
2018-05-02T00:38:47.008Z,14.30
2018-05-02T00:41:14.826Z,15.25
2018-05-02T00:43:42.291Z,15.63
2018-05-02T00:46:09.769Z,15.38
2018-05-02T00:48:49.330Z,16.52
2018-05-02T00:51:17.578Z,16.52
2018-05-02T00:53:45.443Z,15.98
2018-05-02T00:56:13.330Z,15.75
2018-05-02T00:58:40.799Z,16.02
2018-05-02T01:01:09.049Z,17.27
2018-05-02T01:03:36.826Z,15.35
2018-05-02T01:06:04.302Z,17.85
2018-05-02T01:08:32.541Z,16.92
2018-05-02T01:11:00.450Z,19.60
2018-05-02T01:13:27.994Z,20.05
2018-05-02T01:15:56.244Z,18.77
2018-05-02T01:18:24.018Z,17.15
2018-05-02T01:20:52.290Z,18.33
2018-05-02T01:23:19.751Z,18.80
2018-05-02T01:25:47.577Z,18.73
2018-05-02T01:28:15.054Z,20.17
2018-05-02T01:30:42.538Z,20.85
2018-05-02T01:33:10.412Z,19.48
2018-05-02T01:35:37.885Z,19.52
2018-05-02T01:38:06.114Z,20.10
2018-05-02T01:40:33.910Z,21.15
2018-05-02T01:43:02.155Z,19.85
2018-05-02T01:45:29.634Z,21.08
2018-05-02T01:47:57.425Z,21.35
2018-05-02T01:50:24.918Z,20.80
2018-05-02T01:52:52.417Z,21.67
2018-05-02T01:55:20.282Z,22.90
2018-05-02T01:57:48.557Z,21.08
2018-05-02T02:00:16.021Z,21.35
2018-05-02T02:02:43.874Z,21.50
2018-05-02T02:05:12.035Z,21.67
2018-05-02T02:07:39.642Z,21.15
2018-05-02T02:10:07.390Z,21.52
2018-05-02T02:12:34.926Z,21.02
2018-05-02T02:15:02.402Z,22.87
2018-05-02T02:17:30.250Z,21.52
2018-05-02T02:19:57.738Z,23.33
2018-05-02T02:22:25.607Z,23.60
2018-05-02T02:24:53.454Z,21.50
2018-05-02T02:27:21.710Z,21.40
2018-05-02T02:29:49.190Z,21.75
2018-05-02T02:32:17.865Z,19.62
2018-05-02T02:34:46.131Z,22.30
2018-05-02T02:37:13.614Z,22.92
2018-05-02T02:39:42.198Z,23.45
2018-05-02T02:42:10.486Z,23.87
2018-05-02T02:44:37.959Z,21.90
2018-05-02T02:47:06.272Z,21.15
2018-05-02T02:49:33.856Z,24.23
2018-05-02T02:52:02.102Z,23.25
2018-05-02T02:54:30.002Z,22.60
2018-05-02T02:56:58.246Z,22.92
2018-05-02T02:59:25.734Z,23.23
2018-05-02T03:01:54.293Z,23.10
2018-05-02T03:04:21.778Z,23.42
2018-05-02T03:06:50.052Z,23.90
2018-05-02T03:09:17.912Z,23.95
2018-05-02T03:11:46.175Z,22.25
2018-05-02T03:14:13.705Z,21.40
2018-05-02T03:16:41.497Z,23.33
2018-05-02T03:19:08.958Z,22.70
2018-05-02T03:21:37.227Z,23.20
2018-05-02T03:24:05.198Z,22.80
2018-05-02T03:26:32.826Z,21.95
2018-05-02T03:29:00.654Z,22.58
2018-05-02T03:31:28.406Z,23.45
2018-05-02T03:33:56.663Z,21.90
2018-05-02T03:36:24.941Z,21.33
2018-05-02T03:38:52.711Z,22.33
2018-05-02T03:41:20.955Z,21.20
2018-05-02T03:43:48.426Z,21.42
2018-05-02T03:46:16.752Z,21.48
2018-05-02T03:48:44.217Z,20.77
2018-05-02T03:51:11.748Z,19.92
2018-05-02T03:53:40.289Z,20.35
2018-05-02T03:56:07.761Z,19.45
2018-05-02T03:58:35.234Z,19.10
2018-05-02T04:01:15.611Z,19.83
2018-05-02T04:03:55.004Z,17.73
2018-05-02T04:06:32.519Z,21.20
2018-05-02T04:09:00.015Z,19.23
2018-05-02T04:11:27.494Z,18.62
2018-05-02T04:13:55.389Z,18.67
2018-05-02T04:16:22.987Z,18.25
2018-05-02T04:18:50.568Z,18.10
2018-05-02T04:21:18.268Z,17.35
2018-05-02T04:23:45.742Z,16.52
2018-05-02T04:26:13.999Z,16.70
2018-05-02T04:28:41.869Z,18.45
2018-05-02T04:31:10.140Z,18.48
2018-05-02T04:33:37.617Z,16.10
2018-05-02T04:36:05.478Z,18.25
2018-05-02T04:38:33.723Z,18.42
2018-05-02T04:41:01.204Z,18.40
2018-05-02T04:43:29.017Z,18.27
2018-05-02T04:45:56.478Z,18.25
2018-05-02T04:48:23.959Z,19.40
2018-05-02T04:50:52.540Z,16.45
2018-05-02T04:53:20.033Z,17.48
2018-05-02T04:55:47.554Z,17.60
2018-05-02T04:58:15.471Z,16.58
2018-05-02T05:00:42.966Z,16.85
2018-05-02T05:03:10.434Z,17.37
2018-05-02T05:05:37.920Z,17.77
2018-05-02T05:08:05.383Z,17.30
2018-05-02T05:10:32.897Z,16.30
2018-05-02T05:13:00.734Z,16.67
2018-05-02T05:15:28.209Z,16.90
2018-05-02T05:17:56.113Z,13.25
2018-05-02T05:20:24.711Z,13.48
2018-05-02T05:22:52.962Z,13.57
2018-05-02T05:25:20.444Z,13.80
2018-05-02T05:27:49.059Z,13.50
2018-05-02T05:30:16.557Z,13.52
2018-05-02T05:32:44.049Z,13.23
2018-05-02T05:35:12.308Z,13.98
2018-05-02T05:37:39.850Z,12.93
2018-05-02T05:40:07.396Z,13.70
2018-05-02T05:42:35.213Z,13.30
2018-05-02T05:45:03.523Z,13.70
2018-05-02T05:47:30.989Z,13.48
2018-05-02T05:49:58.729Z,12.98
2018-05-02T05:52:26.224Z,12.25
2018-05-02T05:54:53.697Z,12.68
2018-05-02T05:57:21.213Z,12.43
2018-05-02T05:59:49.148Z,11.98
2018-05-02T06:02:16.659Z,12.63
2018-05-02T06:04:44.170Z,11.88
2018-05-02T06:07:12.402Z,10.23
2018-05-02T06:09:40.066Z,10.45
2018-05-02T06:12:07.936Z,10.20
2018-05-02T06:14:36.102Z,10.55
2018-05-02T06:17:03.662Z,9.57
2018-05-02T06:19:31.339Z,10.48
2018-05-02T06:21:58.830Z,8.38
2018-05-02T06:24:26.306Z,10.10
2018-05-02T06:26:54.267Z,9.63
2018-05-02T06:29:21.751Z,9.18
2018-05-02T06:31:49.326Z,8.05
2018-05-02T06:34:17.109Z,8.00
2018-05-02T06:36:44.615Z,5.70
2018-05-02T06:39:12.088Z,8.10
2018-05-02T06:41:39.895Z,8.45
2018-05-02T06:44:08.175Z,7.62
2018-05-02T06:46:36.411Z,8.35
2018-05-02T06:49:04.057Z,7.82
2018-05-02T06:51:31.587Z,6.28
2018-05-02T06:53:59.069Z,6.12
2018-05-02T06:56:26.947Z,6.53
2018-05-02T06:58:54.441Z,5.60
2018-05-02T07:01:22.822Z,6.27
2018-05-02T07:03:51.382Z,6.50
2018-05-02T07:06:18.871Z,7.03
2018-05-02T07:08:46.366Z,5.73
2018-05-02T07:11:14.132Z,5.80
2018-05-02T07:13:41.619Z,5.83
2018-05-02T07:16:09.107Z,6.20
2018-05-02T07:18:37.646Z,5.87
2018-05-02T07:21:06.358Z,5.17
2018-05-02T07:23:34.338Z,6.13
2018-05-02T07:26:03.018Z,6.03
2018-05-02T07:28:31.295Z,5.30
2018-05-02T07:30:58.766Z,5.40
2018-05-02T07:33:27.241Z,5.40
2018-05-02T07:35:56.334Z,5.90
2018-05-02T07:38:24.584Z,5.60
2018-05-02T07:40:52.066Z,5.70
2018-05-02T07:43:20.334Z,5.20
2018-05-02T07:45:48.613Z,5.80
2018-05-02T07:48:16.935Z,6.45
2018-05-02T07:50:44.422Z,5.53
2018-05-02T07:53:11.926Z,5.70
2018-05-02T07:55:39.459Z,6.32
2018-05-02T07:58:07.731Z,5.82
2018-05-02T08:00:35.226Z,5.10
2018-05-02T08:03:02.717Z,5.55
2018-05-02T08:05:31.334Z,5.75
2018-05-02T08:07:59.584Z,5.75
2018-05-02T08:10:27.091Z,5.40
2018-05-02T08:12:54.589Z,4.85
2018-05-02T08:15:22.131Z,5.85
2018-05-02T08:17:49.723Z,5.80
2018-05-02T08:20:17.241Z,4.75
2018-05-02T08:22:44.714Z,4.90
2018-05-02T08:25:23.681Z,4.43
2018-05-02T08:27:51.221Z,4.47
2018-05-02T08:30:18.715Z,4.50
2018-05-02T08:32:46.580Z,4.53
2018-05-02T08:35:14.836Z,4.83
2018-05-02T08:37:42.311Z,4.70
2018-05-02T08:40:10.210Z,4.40
2018-05-02T08:42:37.702Z,3.60
2018-05-02T08:45:05.185Z,4.33
2018-05-02T08:47:33.445Z,4.20
2018-05-02T08:50:01.706Z,4.10
2018-05-02T08:52:29.187Z,4.27
2018-05-02T08:54:57.458Z,3.97
2018-05-02T08:57:25.791Z,4.30
2018-05-02T08:59:53.271Z,4.07
2018-05-02T09:02:20.786Z,3.40
2018-05-02T09:04:49.063Z,3.30
2018-05-02T09:07:16.593Z,3.40
2018-05-02T09:09:44.171Z,3.10
2018-05-02T09:12:11.705Z,3.60
2018-05-02T09:14:39.166Z,4.17
2018-05-02T09:17:07.485Z,3.57
2018-05-02T09:19:35.736Z,4.03
2018-05-02T09:22:03.222Z,2.93
2018-05-02T09:24:30.730Z,3.90
2018-05-02T09:26:59.023Z,3.00
2018-05-02T09:29:26.505Z,3.50
2018-05-02T09:31:54.050Z,3.30
2018-05-02T09:34:21.543Z,3.00
2018-05-02T09:36:49.034Z,3.53
2018-05-02T09:39:16.535Z,3.70
2018-05-02T09:41:44.008Z,2.50
2018-05-02T09:44:11.571Z,3.17
2018-05-02T09:46:38.994Z,3.00
2018-05-02T09:49:06.459Z,2.80
2018-05-02T09:51:33.944Z,4.00
2018-05-02T09:54:01.438Z,3.13
2018-05-02T09:56:29.695Z,4.00
2018-05-02T09:58:57.182Z,3.27
2018-05-02T10:01:25.554Z,3.13
2018-05-02T10:03:53.046Z,3.70
2018-05-02T10:06:20.525Z,3.50
2018-05-02T10:08:48.109Z,3.00
2018-05-02T10:11:15.669Z,2.85
2018-05-02T10:13:43.154Z,3.62
2018-05-02T10:16:10.637Z,3.10
2018-05-02T10:18:38.314Z,3.20
2018-05-02T10:21:05.980Z,2.80
2018-05-02T10:23:34.001Z,3.10
2018-05-02T10:26:01.600Z,3.10
2018-05-02T10:28:29.117Z,3.10
2018-05-02T10:30:58.331Z,2.90
2018-05-02T10:33:25.850Z,2.97
2018-05-02T10:35:53.418Z,3.23
2018-05-02T10:38:20.934Z,2.60
2018-05-02T10:40:48.407Z,3.23
2018-05-02T10:43:16.061Z,2.80
2018-05-02T10:45:43.403Z,2.80
2018-05-02T10:48:10.891Z,3.40
2018-05-02T10:50:38.402Z,3.23
2018-05-02T10:53:05.904Z,2.97
2018-05-02T10:55:33.406Z,3.47
2018-05-02T10:58:00.998Z,3.10
2018-05-02T11:00:28.511Z,3.27
2018-05-02T11:02:56.017Z,3.10
2018-05-02T11:05:23.518Z,2.87
2018-05-02T11:07:51.838Z,3.17
2018-05-02T11:10:19.315Z,2.80
2018-05-02T11:12:46.810Z,3.70
2018-05-02T11:15:15.084Z,3.60
2018-05-02T11:17:42.551Z,2.97
2018-05-02T11:20:10.111Z,2.67
2018-05-02T11:22:38.396Z,4.07
2018-05-02T11:25:05.994Z,3.23
2018-05-02T11:27:33.462Z,3.20
2018-05-02T11:30:01.243Z,3.20
2018-05-02T11:32:29.506Z,3.67
2018-05-02T11:34:57.130Z,2.90
2018-05-02T11:37:24.618Z,3.70
2018-05-02T11:39:52.134Z,3.17
2018-05-02T11:42:19.612Z,3.40
2018-05-02T11:44:47.106Z,4.27
2018-05-02T11:47:15.381Z,3.30
2018-05-02T11:49:42.982Z,3.73
2018-05-02T11:52:10.499Z,3.50
2018-05-02T11:54:37.978Z,3.47
2018-05-02T11:57:06.243Z,3.60
2018-05-02T11:59:34.153Z,3.50
2018-05-02T12:02:01.634Z,3.40
2018-05-02T12:04:29.157Z,3.00
2018-05-02T12:06:56.682Z,3.70
2018-05-02T12:09:24.926Z,3.63
2018-05-02T12:11:52.398Z,3.63
2018-05-02T12:14:20.302Z,3.30
2018-05-02T12:16:47.770Z,3.90
2018-05-02T12:19:16.050Z,2.33
2018-05-02T12:21:43.553Z,3.40
2018-05-02T12:24:11.059Z,2.97
2018-05-02T12:26:38.546Z,2.80
2018-05-02T12:29:06.051Z,2.90
2018-05-02T12:31:34.312Z,3.27
2018-05-02T12:34:01.804Z,3.53
2018-05-02T12:36:29.335Z,3.30
2018-05-02T12:38:57.610Z,3.93
2018-05-02T12:41:25.884Z,3.23
2018-05-02T12:43:53.414Z,3.40
2018-05-02T12:46:20.918Z,2.80
2018-05-02T12:48:49.187Z,3.20
2018-05-02T12:51:17.466Z,3.10
2018-05-02T12:53:45.060Z,3.10
2018-05-02T12:56:12.740Z,3.50
2018-05-02T12:58:40.134Z,3.30
2018-05-02T13:01:08.375Z,3.40
2018-05-02T13:03:35.859Z,3.47
2018-05-02T13:06:03.421Z,3.00
2018-05-02T13:08:30.901Z,3.60
2018-05-02T13:10:59.128Z,2.90
2018-05-02T13:13:26.679Z,2.50
2018-05-02T13:15:54.195Z,2.50
2018-05-02T13:18:21.695Z,2.70
2018-05-02T13:20:49.190Z,3.00
2018-05-02T13:23:16.883Z,2.60
2018-05-02T13:25:44.511Z,3.30
2018-05-02T13:28:12.200Z,3.07
2018-05-02T13:30:39.740Z,2.90
2018-05-02T13:33:07.284Z,3.43
2018-05-02T13:35:34.791Z,3.10
2018-05-02T13:38:02.276Z,2.23
2018-05-02T13:40:30.150Z,3.50
2018-05-02T13:42:57.712Z,3.30
2018-05-02T13:45:25.203Z,3.17
2018-05-02T13:47:52.671Z,3.43
2018-05-02T13:50:20.201Z,3.50
2018-05-02T13:52:48.479Z,3.10
2018-05-02T13:55:16.054Z,3.40
2018-05-02T13:57:43.559Z,2.83
2018-05-02T14:00:11.037Z,2.60
2018-05-02T14:02:38.538Z,3.70
2018-05-02T14:05:06.141Z,3.10
2018-05-02T14:07:33.674Z,3.57
2018-05-02T14:10:01.154Z,3.20
2018-05-02T14:12:28.661Z,3.40
2018-05-02T14:14:56.135Z,2.90
2018-05-02T14:17:23.622Z,3.60
2018-05-02T14:19:51.182Z,3.20
2018-05-02T14:22:18.694Z,2.40
2018-05-02T14:24:47.018Z,2.93
2018-05-02T14:27:14.497Z,3.07
2018-05-02T14:29:42.009Z,2.97
2018-05-02T14:32:09.479Z,2.60
2018-05-02T14:34:37.295Z,3.20
2018-05-02T14:37:05.541Z,3.40
2018-05-02T14:39:33.008Z,3.10
2018-05-02T14:42:00.517Z,3.17
2018-05-02T14:44:27.994Z,3.63
2018-05-02T14:46:55.466Z,3.70
2018-05-02T14:49:22.959Z,4.10
2018-05-02T14:51:51.207Z,3.13
2018-05-02T14:54:18.676Z,3.83
2018-05-02T14:56:46.946Z,3.30
2018-05-02T14:59:14.435Z,3.70
2018-05-02T15:01:42.015Z,3.40
2018-05-02T15:04:09.502Z,3.30
2018-05-02T15:06:37.007Z,2.87
2018-05-02T15:09:07.278Z,2.23
2018-05-02T15:11:35.206Z,2.70
2018-05-02T15:14:02.714Z,2.40
2018-05-02T15:16:30.202Z,2.70
2018-05-02T15:18:59.595Z,3.80
2018-05-02T15:21:27.851Z,3.23
2018-05-02T15:23:55.318Z,2.70
2018-05-02T15:26:23.597Z,2.70
2018-05-02T15:28:51.100Z,2.90
2018-05-02T15:31:18.593Z,2.97
2018-05-02T15:33:46.126Z,3.10
2018-05-02T15:36:13.622Z,2.70
2018-05-02T15:38:41.236Z,3.30
2018-05-02T15:41:08.726Z,2.50
2018-05-02T15:43:36.196Z,2.80
2018-05-02T15:46:03.718Z,2.53
2018-05-02T15:48:31.249Z,3.10
2018-05-02T15:50:58.722Z,2.90
2018-05-02T15:53:26.224Z,2.77
2018-05-02T15:55:53.712Z,3.10
2018-05-02T15:58:21.243Z,2.70
2018-05-02T16:00:48.689Z,2.30
2018-05-02T16:03:16.192Z,3.07
2018-05-02T16:05:43.705Z,4.07
2018-05-02T16:08:11.208Z,2.63
2018-05-02T16:10:38.721Z,2.80
2018-05-02T16:13:06.218Z,3.20
2018-05-02T16:15:33.702Z,2.50
2018-05-02T16:18:01.235Z,2.80
2018-05-02T16:20:29.496Z,2.60
2018-05-02T16:22:56.966Z,2.50
2018-05-02T16:25:24.576Z,3.20
2018-05-02T16:27:52.108Z,2.90
2018-05-02T16:30:19.573Z,2.87
2018-05-02T16:32:47.074Z,3.00
2018-05-02T16:35:14.599Z,2.43
2018-05-02T16:37:42.090Z,2.60
2018-05-02T16:40:09.579Z,2.70
2018-05-02T16:42:37.067Z,2.77
2018-05-02T16:45:04.613Z,2.93
2018-05-02T16:47:32.104Z,3.03
2018-05-02T16:49:59.580Z,3.30
2018-05-02T16:52:27.826Z,2.73
2018-05-02T16:54:55.462Z,2.80
2018-05-02T16:57:22.940Z,2.90
2018-05-02T16:59:50.435Z,3.50
2018-05-02T17:02:18.227Z,2.97
2018-05-02T17:04:45.847Z,2.57
2018-05-02T17:07:13.222Z,2.67
2018-05-02T17:09:40.733Z,3.47
2018-05-02T17:12:08.256Z,3.60
2018-05-02T17:14:35.746Z,3.17
2018-05-02T17:17:03.251Z,3.75
2018-05-02T17:19:30.746Z,4.12
2018-05-02T17:21:58.304Z,4.10
2018-05-02T17:24:25.734Z,4.20
2018-05-02T17:26:53.247Z,4.32
2018-05-02T17:29:20.721Z,3.92
2018-05-02T17:31:49.241Z,5.22
2018-05-02T17:34:16.766Z,4.97
2018-05-02T17:36:45.055Z,4.95
2018-05-02T17:39:12.551Z,4.53
2018-05-02T17:41:40.021Z,6.35
2018-05-02T17:44:07.502Z,4.78
2018-05-02T17:46:35.794Z,6.78
2018-05-02T17:49:04.214Z,6.47
2018-05-02T17:51:31.712Z,7.00
2018-05-02T17:53:59.250Z,6.57
2018-05-02T17:56:26.723Z,8.10
2018-05-02T17:58:54.288Z,9.27
2018-05-02T18:01:22.551Z,9.52
2018-05-02T18:03:50.521Z,9.00
2018-05-02T18:06:18.759Z,8.88
2018-05-02T18:08:46.257Z,8.50
2018-05-02T18:11:13.783Z,10.02
2018-05-02T18:13:42.032Z,9.20
2018-05-02T18:16:10.366Z,9.15
2018-05-02T18:18:38.644Z,8.52
2018-05-02T18:21:06.534Z,8.50
2018-05-02T18:23:34.804Z,9.65
2018-05-02T18:26:03.061Z,9.63
2018-05-02T18:28:31.271Z,9.05
2018-05-02T18:30:59.565Z,8.90
2018-05-02T18:33:27.036Z,8.48
2018-05-02T18:35:54.959Z,8.18
2018-05-02T18:38:23.248Z,8.93
2018-05-02T18:40:51.148Z,8.80
2018-05-02T18:43:18.662Z,8.63
2018-05-02T18:45:46.539Z,8.70
2018-05-02T18:48:14.795Z,9.18
2018-05-02T18:50:42.291Z,8.90
2018-05-02T18:53:09.821Z,9.20
2018-05-02T18:55:37.281Z,9.32
2018-05-02T18:58:05.548Z,8.50
2018-05-02T19:00:33.114Z,9.07
2018-05-02T19:03:00.632Z,9.25
2018-05-02T19:05:28.198Z,9.10
2018-05-02T19:07:55.690Z,9.10
2018-05-02T19:10:23.974Z,9.05
2018-05-02T19:12:51.483Z,9.50
2018-05-02T19:15:19.810Z,8.90
2018-05-02T19:31:22.678Z,12.27
2018-05-02T19:33:52.734Z,10.70
2018-05-02T19:36:20.615Z,10.85
2018-05-02T19:38:48.163Z,11.93
2018-05-02T19:41:21.417Z,12.88
2018-05-02T19:43:57.262Z,13.60
2018-05-02T19:46:24.826Z,14.30
2018-05-02T19:48:52.798Z,11.02
2018-05-02T19:51:26.383Z,10.07
2018-05-02T19:53:53.970Z,8.85
2018-05-02T19:56:21.845Z,8.75
2018-05-02T19:58:50.043Z,8.40
2018-05-02T20:01:23.203Z,9.32
2018-05-02T20:03:51.035Z,13.05
2018-05-02T20:06:19.343Z,13.30
2018-05-02T20:08:54.010Z,12.43
2018-05-02T20:11:28.765Z,8.85
2018-05-02T20:14:12.910Z,8.32
2018-05-02T20:16:40.391Z,8.48
2018-05-02T20:19:08.697Z,9.63
2018-05-02T20:21:36.215Z,10.65
2018-05-02T20:24:04.457Z,12.05
2018-05-02T20:26:31.975Z,9.63
2018-05-02T20:29:00.234Z,11.68
2018-05-02T20:31:27.817Z,10.68
2018-05-02T20:33:55.306Z,13.40
2018-05-02T20:36:22.829Z,11.23
2018-05-02T20:38:50.318Z,11.60
2018-05-02T20:41:17.797Z,10.23
2018-05-02T20:43:46.335Z,9.55
2018-05-02T20:46:13.843Z,9.68
2018-05-02T20:48:42.104Z,10.80
2018-05-02T20:51:09.647Z,10.13
2018-05-02T20:53:37.187Z,10.65
2018-05-02T20:56:04.674Z,8.80
2018-05-02T20:58:32.994Z,8.95
2018-05-02T21:01:00.488Z,9.05
2018-05-02T21:03:27.954Z,8.23
2018-05-02T21:05:55.442Z,8.70
2018-05-02T21:08:23.322Z,8.63
2018-05-02T21:10:50.904Z,8.05
2018-05-02T21:13:19.326Z,6.60
2018-05-02T21:15:46.817Z,6.00
2018-05-02T21:18:15.044Z,4.80
2018-05-02T21:20:42.535Z,5.18
2018-05-02T21:23:10.796Z,5.62
2018-05-02T21:25:38.271Z,6.05
2018-05-02T21:28:06.549Z,5.65
2018-05-02T21:30:34.423Z,5.05
2018-05-02T21:33:01.944Z,5.70
2018-05-02T21:35:29.975Z,5.03
2018-05-02T21:37:57.553Z,4.75
2018-05-02T21:40:25.046Z,5.32
2018-05-02T21:42:52.914Z,6.35
2018-05-02T21:45:21.178Z,5.37
2018-05-02T21:47:48.688Z,6.85
2018-05-02T21:50:16.511Z,5.65
2018-05-02T21:52:44.000Z,5.40
2018-05-02T21:55:11.503Z,5.05
2018-05-02T21:57:38.990Z,5.03
2018-05-02T22:00:06.914Z,5.30
2018-05-02T22:02:34.434Z,5.78
2018-05-02T22:05:02.581Z,4.50
2018-05-02T22:07:30.514Z,4.87
2018-05-02T22:09:58.015Z,4.10
2018-05-02T22:12:25.881Z,4.40
2018-05-02T22:14:54.175Z,4.60
2018-05-02T22:17:21.645Z,4.50
2018-05-02T22:19:49.156Z,4.25
2018-05-02T22:22:17.406Z,3.85
2018-05-02T22:24:44.894Z,3.60
2018-05-02T22:27:12.372Z,3.47
2018-05-02T22:29:39.954Z,4.30
2018-05-02T22:32:07.426Z,4.30
2018-05-02T22:34:34.953Z,3.92
2018-05-02T22:37:02.435Z,3.50
2018-05-02T22:39:29.901Z,3.78
2018-05-02T22:41:58.147Z,3.42
2018-05-02T22:44:25.610Z,3.78
2018-05-02T22:46:53.083Z,3.85
2018-05-02T22:49:21.006Z,3.40
2018-05-02T22:51:49.236Z,4.07
2018-05-02T22:54:16.715Z,3.22
2018-05-02T22:56:44.496Z,4.53
2018-05-02T22:59:12.759Z,3.62
2018-05-02T23:01:40.246Z,3.83
2018-05-02T23:04:08.394Z,3.90
2018-05-02T23:06:35.854Z,3.20
2018-05-02T23:09:03.343Z,3.30
2018-05-02T23:11:31.193Z,3.60
2018-05-02T23:13:58.699Z,3.70
2018-05-02T23:16:26.191Z,3.53
2018-05-02T23:18:53.971Z,3.17
2018-05-02T23:21:22.220Z,3.20
2018-05-02T23:23:49.835Z,4.00
2018-05-02T23:26:17.673Z,3.58
2018-05-02T23:28:45.906Z,3.55
2018-05-02T23:31:13.392Z,4.72
2018-05-02T23:33:41.998Z,3.65
2018-05-02T23:36:10.230Z,5.25
2018-05-02T23:38:37.714Z,3.00
2018-05-02T23:41:06.240Z,3.95
2018-05-02T23:43:33.705Z,2.80
2018-05-02T23:46:01.174Z,3.83
2018-05-02T23:48:28.911Z,3.92
2018-05-02T23:50:56.372Z,3.40
2018-05-02T23:53:23.833Z,3.70
2018-05-02T23:55:51.888Z,3.87
2018-05-02T23:58:19.746Z,4.32
